sensor_id;sensor_type;location;lat;lon;timestamp;pressure;altitude;pressure_sealevel;temperature;humidity
70256;BME280;57669;52.624;-1.688;2022-08-01T00:00:52;101338.46;;;17.65;37.04
70256;BME280;57669;52.624;-1.688;2022-08-01T00:03:18;101338.38;;;17.24;37.11
70256;BME280;57669;52.624;-1.688;2022-08-01T00:05:44;101337.88;;;17.77;36.73
70256;BME280;57669;52.624;-1.688;2022-08-01T00:08:09;101342.67;;;17.72;37.17
70256;BME280;57669;52.624;-1.688;2022-08-01T00:10:35;101345.71;;;16.69;37.94
70256;BME280;57669;52.624;-1.688;2022-08-01T00:13:01;101342.37;;;17.11;37.66
70256;BME280;57669;52.624;-1.688;2022-08-01T00:15:26;101345.38;;;16.82;37.97
70256;BME280;57669;52.624;-1.688;2022-08-01T00:17:52;101355.27;;;16.47;38.06
70256;BME280;57669;52.624;-1.688;2022-08-01T00:20:18;101357.62;;;16.50;38.21
70256;BME280;57669;52.624;-1.688;2022-08-01T00:22:43;101363.05;;;16.56;37.85
70256;BME280;57669;52.624;-1.688;2022-08-01T00:25:09;101358.11;;;16.10;38.92
70256;BME280;57669;52.624;-1.688;2022-08-01T00:27:35;101360.93;;;16.32;38.55
70256;BME280;57669;52.624;-1.688;2022-08-01T00:30:01;101359.10;;;15.92;39.24
70256;BME280;57669;52.624;-1.688;2022-08-01T00:32:26;101351.48;;;16.57;38.24
70256;BME280;57669;52.624;-1.688;2022-08-01T00:34:51;101349.71;;;16.35;38.82
70256;BME280;57669;52.624;-1.688;2022-08-01T00:37:18;101349.17;;;16.89;38.34
70256;BME280;57669;52.624;-1.688;2022-08-01T00:39:43;101350.67;;;17.13;37.95
70256;BME280;57669;52.624;-1.688;2022-08-01T00:42:09;101349.82;;;17.21;37.72
70256;BME280;57669;52.624;-1.688;2022-08-01T00:44:34;101346.90;;;17.21;37.77
70256;BME280;57669;52.624;-1.688;2022-08-01T00:47:00;101344.42;;;16.69;38.70
70256;BME280;57669;52.624;-1.688;2022-08-01T00:49:25;101344.64;;;16.58;38.93
70256;BME280;57669;52.624;-1.688;2022-08-01T00:51:51;101342.23;;;16.47;39.11
70256;BME280;57669;52.624;-1.688;2022-08-01T00:54:17;101336.79;;;16.94;38.63
70256;BME280;57669;52.624;-1.688;2022-08-01T00:56:43;101332.60;;;16.75;39.13
70256;BME280;57669;52.624;-1.688;2022-08-01T00:59:09;101335.66;;;16.33;39.73
70256;BME280;57669;52.624;-1.688;2022-08-01T01:01:33;101335.07;;;16.01;40.25
70256;BME280;57669;52.624;-1.688;2022-08-01T01:03:59;101334.30;;;16.30;39.91
70256;BME280;57669;52.624;-1.688;2022-08-01T01:06:31;101331.33;;;16.45;40.12
70256;BME280;57669;52.624;-1.688;2022-08-01T01:08:58;101337.05;;;16.33;40.08
70256;BME280;57669;52.624;-1.688;2022-08-01T01:11:24;101343.31;;;16.30;40.26
70256;BME280;57669;52.624;-1.688;2022-08-01T01:13:45;101348.90;;;16.17;40.52
70256;BME280;57669;52.624;-1.688;2022-08-01T01:16:12;101347.06;;;16.87;39.53
70256;BME280;57669;52.624;-1.688;2022-08-01T01:18:38;101346.09;;;16.58;39.75
70256;BME280;57669;52.624;-1.688;2022-08-01T01:21:03;101345.28;;;16.45;39.84
70256;BME280;57669;52.624;-1.688;2022-08-01T01:23:37;101339.36;;;16.21;40.54
70256;BME280;57669;52.624;-1.688;2022-08-01T01:28:25;101336.80;;;16.40;40.61
70256;BME280;57669;52.624;-1.688;2022-08-01T01:30:44;101346.61;;;15.74;41.50
70256;BME280;57669;52.624;-1.688;2022-08-01T01:33:08;101341.53;;;16.08;41.11
70256;BME280;57669;52.624;-1.688;2022-08-01T01:35:36;101340.62;;;16.16;41.10
70256;BME280;57669;52.624;-1.688;2022-08-01T01:38:04;101339.60;;;16.56;40.69
70256;BME280;57669;52.624;-1.688;2022-08-01T01:40:25;101337.96;;;16.38;40.58
70256;BME280;57669;52.624;-1.688;2022-08-01T01:42:50;101346.30;;;16.09;41.33
70256;BME280;57669;52.624;-1.688;2022-08-01T01:45:16;101338.83;;;16.07;40.63
70256;BME280;57669;52.624;-1.688;2022-08-01T01:47:41;101343.20;;;15.60;41.49
70256;BME280;57669;52.624;-1.688;2022-08-01T01:50:08;101341.38;;;16.01;40.98
70256;BME280;57669;52.624;-1.688;2022-08-01T01:52:32;101339.51;;;16.20;40.76
70256;BME280;57669;52.624;-1.688;2022-08-01T01:54:58;101340.77;;;16.10;41.23
70256;BME280;57669;52.624;-1.688;2022-08-01T01:57:24;101336.71;;;16.05;40.83
70256;BME280;57669;52.624;-1.688;2022-08-01T01:59:50;101327.28;;;16.53;40.39
70256;BME280;57669;52.624;-1.688;2022-08-01T02:02:15;101323.35;;;16.58;40.27
70256;BME280;57669;52.624;-1.688;2022-08-01T02:04:42;101329.51;;;16.66;39.99
70256;BME280;57669;52.624;-1.688;2022-08-01T02:07:06;101344.90;;;15.64;41.23
70256;BME280;57669;52.624;-1.688;2022-08-01T02:09:34;101338.27;;;16.39;40.45
70256;BME280;57669;52.624;-1.688;2022-08-01T02:11:58;101345.61;;;15.66;41.26
70256;BME280;57669;52.624;-1.688;2022-08-01T02:16:50;101344.29;;;16.58;40.08
70256;BME280;57669;52.624;-1.688;2022-08-01T02:19:15;101344.46;;;16.27;40.80
70256;BME280;57669;52.624;-1.688;2022-08-01T02:21:45;101349.17;;;16.44;40.90
70256;BME280;57669;52.624;-1.688;2022-08-01T02:24:14;101350.00;;;16.42;40.91
70256;BME280;57669;52.624;-1.688;2022-08-01T02:26:32;101350.49;;;16.02;40.79
70256;BME280;57669;52.624;-1.688;2022-08-01T02:29:00;101354.90;;;16.09;41.30
70256;BME280;57669;52.624;-1.688;2022-08-01T02:31:23;101341.33;;;16.28;40.54
70256;BME280;57669;52.624;-1.688;2022-08-01T02:33:55;101339.86;;;15.34;41.65
70256;BME280;57669;52.624;-1.688;2022-08-01T02:36:16;101332.51;;;15.71;41.40
70256;BME280;57669;52.624;-1.688;2022-08-01T02:38:43;101327.67;;;15.82;41.55
70256;BME280;57669;52.624;-1.688;2022-08-01T02:41:08;101322.94;;;15.61;41.59
70256;BME280;57669;52.624;-1.688;2022-08-01T02:43:34;101326.39;;;15.58;41.50
70256;BME280;57669;52.624;-1.688;2022-08-01T02:46:00;101324.92;;;15.65;41.62
70256;BME280;57669;52.624;-1.688;2022-08-01T02:48:25;101321.17;;;15.36;41.97
70256;BME280;57669;52.624;-1.688;2022-08-01T02:50:50;101318.82;;;15.72;41.57
70256;BME280;57669;52.624;-1.688;2022-08-01T02:53:16;101320.83;;;15.55;41.75
70256;BME280;57669;52.624;-1.688;2022-08-01T02:55:41;101322.14;;;15.74;41.77
70256;BME280;57669;52.624;-1.688;2022-08-01T02:58:07;101322.01;;;15.49;42.09
70256;BME280;57669;52.624;-1.688;2022-08-01T03:00:32;101324.11;;;15.10;42.83
70256;BME280;57669;52.624;-1.688;2022-08-01T03:02:57;101322.76;;;15.16;42.20
70256;BME280;57669;52.624;-1.688;2022-08-01T03:05:24;101323.87;;;15.63;41.99
70256;BME280;57669;52.624;-1.688;2022-08-01T03:07:48;101328.73;;;15.69;42.02
70256;BME280;57669;52.624;-1.688;2022-08-01T03:10:14;101333.21;;;15.44;42.24
70256;BME280;57669;52.624;-1.688;2022-08-01T03:12:40;101341.44;;;15.51;42.40
70256;BME280;57669;52.624;-1.688;2022-08-01T03:15:06;101341.40;;;15.18;43.03
70256;BME280;57669;52.624;-1.688;2022-08-01T03:17:32;101347.03;;;15.33;43.08
70256;BME280;57669;52.624;-1.688;2022-08-01T03:19:57;101343.97;;;14.94;43.32
70256;BME280;57669;52.624;-1.688;2022-08-01T03:22:23;101343.38;;;15.20;43.11
70256;BME280;57669;52.624;-1.688;2022-08-01T03:24:50;101342.01;;;15.27;42.85
70256;BME280;57669;52.624;-1.688;2022-08-01T03:27:14;101343.56;;;15.29;42.23
70256;BME280;57669;52.624;-1.688;2022-08-01T03:29:41;101344.84;;;15.53;41.99
70256;BME280;57669;52.624;-1.688;2022-08-01T03:32:06;101346.47;;;15.03;42.94
70256;BME280;57669;52.624;-1.688;2022-08-01T03:34:31;101353.03;;;15.17;42.62
70256;BME280;57669;52.624;-1.688;2022-08-01T03:37:01;101350.00;;;15.53;42.67
70256;BME280;57669;52.624;-1.688;2022-08-01T03:39:27;101349.89;;;15.62;42.86
70256;BME280;57669;52.624;-1.688;2022-08-01T03:41:52;101349.00;;;15.23;43.54
70256;BME280;57669;52.624;-1.688;2022-08-01T03:44:16;101350.86;;;15.47;43.15
70256;BME280;57669;52.624;-1.688;2022-08-01T03:46:43;101350.74;;;15.33;43.05
70256;BME280;57669;52.624;-1.688;2022-08-01T03:49:14;101347.26;;;15.43;43.23
70256;BME280;57669;52.624;-1.688;2022-08-01T03:51:31;101341.81;;;15.52;42.71
70256;BME280;57669;52.624;-1.688;2022-08-01T03:53:57;101340.68;;;14.74;44.24
70256;BME280;57669;52.624;-1.688;2022-08-01T03:56:23;101345.01;;;15.15;43.46
70256;BME280;57669;52.624;-1.688;2022-08-01T03:58:48;101344.31;;;15.84;42.74
70256;BME280;57669;52.624;-1.688;2022-08-01T04:01:14;101344.14;;;15.69;42.48
70256;BME280;57669;52.624;-1.688;2022-08-01T04:03:39;101347.89;;;15.67;42.49
70256;BME280;57669;52.624;-1.688;2022-08-01T04:06:05;101347.95;;;15.83;42.54
70256;BME280;57669;52.624;-1.688;2022-08-01T04:08:35;101345.08;;;15.53;42.51
70256;BME280;57669;52.624;-1.688;2022-08-01T04:10:56;101341.66;;;15.70;42.50
70256;BME280;57669;52.624;-1.688;2022-08-01T04:13:22;101343.67;;;15.78;42.35
70256;BME280;57669;52.624;-1.688;2022-08-01T04:15:47;101348.27;;;15.39;42.86
70256;BME280;57669;52.624;-1.688;2022-08-01T04:18:13;101346.63;;;15.07;42.94
70256;BME280;57669;52.624;-1.688;2022-08-01T04:20:39;101343.44;;;14.63;44.57
70256;BME280;57669;52.624;-1.688;2022-08-01T04:23:05;101340.93;;;14.41;44.48
70256;BME280;57669;52.624;-1.688;2022-08-01T04:25:33;101344.88;;;14.71;43.89
70256;BME280;57669;52.624;-1.688;2022-08-01T04:27:57;101352.01;;;14.81;44.10
70256;BME280;57669;52.624;-1.688;2022-08-01T04:30:25;101349.80;;;15.31;42.98
70256;BME280;57669;52.624;-1.688;2022-08-01T04:32:48;101345.82;;;15.55;42.65
70256;BME280;57669;52.624;-1.688;2022-08-01T04:35:16;101349.70;;;15.50;42.60
70256;BME280;57669;52.624;-1.688;2022-08-01T04:37:40;101349.85;;;15.50;42.54
70256;BME280;57669;52.624;-1.688;2022-08-01T04:40:06;101349.26;;;15.81;42.04
70256;BME280;57669;52.624;-1.688;2022-08-01T04:42:30;101353.31;;;15.45;42.53
70256;BME280;57669;52.624;-1.688;2022-08-01T04:44:57;101352.20;;;15.71;41.94
70256;BME280;57669;52.624;-1.688;2022-08-01T04:47:22;101354.50;;;15.46;42.19
70256;BME280;57669;52.624;-1.688;2022-08-01T04:49:47;101355.99;;;15.50;42.46
70256;BME280;57669;52.624;-1.688;2022-08-01T04:52:13;101351.20;;;15.56;42.48
70256;BME280;57669;52.624;-1.688;2022-08-01T04:54:39;101349.92;;;15.69;42.26
70256;BME280;57669;52.624;-1.688;2022-08-01T04:57:06;101347.26;;;15.50;41.63
70256;BME280;57669;52.624;-1.688;2022-08-01T04:59:32;101347.00;;;15.62;41.58
70256;BME280;57669;52.624;-1.688;2022-08-01T05:01:56;101348.35;;;15.10;42.61
70256;BME280;57669;52.624;-1.688;2022-08-01T05:04:22;101350.18;;;14.97;43.00
70256;BME280;57669;52.624;-1.688;2022-08-01T05:06:47;101349.04;;;15.05;42.63
70256;BME280;57669;52.624;-1.688;2022-08-01T05:09:13;101348.09;;;15.88;41.37
70256;BME280;57669;52.624;-1.688;2022-08-01T05:11:39;101348.15;;;16.32;40.71
70256;BME280;57669;52.624;-1.688;2022-08-01T05:14:04;101345.34;;;16.32;40.50
70256;BME280;57669;52.624;-1.688;2022-08-01T05:16:30;101348.60;;;16.65;40.33
70256;BME280;57669;52.624;-1.688;2022-08-01T05:18:56;101344.65;;;16.24;40.84
70256;BME280;57669;52.624;-1.688;2022-08-01T05:21:22;101347.70;;;16.58;40.44
70256;BME280;57669;52.624;-1.688;2022-08-01T05:23:47;101350.21;;;16.39;40.74
70256;BME280;57669;52.624;-1.688;2022-08-01T05:26:13;101355.52;;;16.25;40.79
70256;BME280;57669;52.624;-1.688;2022-08-01T05:28:38;101354.44;;;16.30;40.78
70256;BME280;57669;52.624;-1.688;2022-08-01T05:31:04;101352.03;;;15.96;40.90
70256;BME280;57669;52.624;-1.688;2022-08-01T05:33:29;101342.69;;;16.63;40.07
70256;BME280;57669;52.624;-1.688;2022-08-01T05:35:55;101348.38;;;15.92;41.01
70256;BME280;57669;52.624;-1.688;2022-08-01T05:38:20;101356.06;;;16.23;40.44
70256;BME280;57669;52.624;-1.688;2022-08-01T05:40:46;101357.08;;;16.32;40.84
70256;BME280;57669;52.624;-1.688;2022-08-01T05:43:12;101356.88;;;16.45;40.71
70256;BME280;57669;52.624;-1.688;2022-08-01T05:45:38;101352.25;;;16.79;40.12
70256;BME280;57669;52.624;-1.688;2022-08-01T05:48:03;101356.43;;;16.55;40.86
70256;BME280;57669;52.624;-1.688;2022-08-01T05:50:29;101356.10;;;16.25;41.04
70256;BME280;57669;52.624;-1.688;2022-08-01T05:52:55;101354.51;;;16.90;40.56
70256;BME280;57669;52.624;-1.688;2022-08-01T05:55:20;101359.17;;;16.18;41.05
70256;BME280;57669;52.624;-1.688;2022-08-01T05:57:46;101363.79;;;15.87;41.83
70256;BME280;57669;52.624;-1.688;2022-08-01T06:00:12;101361.09;;;16.37;40.97
70256;BME280;57669;52.624;-1.688;2022-08-01T06:02:40;101357.63;;;16.83;40.38
70256;BME280;57669;52.624;-1.688;2022-08-01T06:05:04;101359.26;;;16.54;40.79
70256;BME280;57669;52.624;-1.688;2022-08-01T06:07:29;101365.53;;;16.07;41.39
70256;BME280;57669;52.624;-1.688;2022-08-01T06:09:54;101362.12;;;16.80;39.79
70256;BME280;57669;52.624;-1.688;2022-08-01T06:12:20;101367.88;;;16.72;40.23
70256;BME280;57669;52.624;-1.688;2022-08-01T06:14:46;101373.23;;;16.01;41.01
70256;BME280;57669;52.624;-1.688;2022-08-01T06:17:11;101375.56;;;16.77;40.22
70256;BME280;57669;52.624;-1.688;2022-08-01T06:19:37;101374.30;;;16.30;40.76
70256;BME280;57669;52.624;-1.688;2022-08-01T06:22:02;101370.38;;;16.83;40.15
70256;BME280;57669;52.624;-1.688;2022-08-01T06:24:28;101366.10;;;16.99;40.25
70256;BME280;57669;52.624;-1.688;2022-08-01T06:26:54;101369.34;;;16.50;40.79
70256;BME280;57669;52.624;-1.688;2022-08-01T06:29:19;101366.89;;;16.14;40.90
70256;BME280;57669;52.624;-1.688;2022-08-01T06:31:45;101366.73;;;16.77;40.16
70256;BME280;57669;52.624;-1.688;2022-08-01T06:34:11;101364.46;;;16.22;41.50
70256;BME280;57669;52.624;-1.688;2022-08-01T06:36:37;101366.14;;;16.98;40.24
70256;BME280;57669;52.624;-1.688;2022-08-01T06:39:03;101368.08;;;17.27;39.18
70256;BME280;57669;52.624;-1.688;2022-08-01T06:41:27;101372.08;;;16.49;40.34
70256;BME280;57669;52.624;-1.688;2022-08-01T06:43:52;101374.14;;;17.00;39.68
70256;BME280;57669;52.624;-1.688;2022-08-01T06:46:18;101379.85;;;17.79;38.77
70256;BME280;57669;52.624;-1.688;2022-08-01T06:48:44;101374.28;;;17.33;38.86
70256;BME280;57669;52.624;-1.688;2022-08-01T06:51:10;101379.14;;;17.51;38.94
70256;BME280;57669;52.624;-1.688;2022-08-01T06:53:36;101372.75;;;16.45;40.29
70256;BME280;57669;52.624;-1.688;2022-08-01T06:56:01;101372.09;;;16.81;40.25
70256;BME280;57669;52.624;-1.688;2022-08-01T06:58:26;101371.28;;;17.54;38.52
70256;BME280;57669;52.624;-1.688;2022-08-01T07:00:52;101371.04;;;16.88;39.59
70256;BME280;57669;52.624;-1.688;2022-08-01T07:03:18;101371.12;;;18.02;38.50
70256;BME280;57669;52.624;-1.688;2022-08-01T07:05:44;101371.38;;;18.23;37.52
70256;BME280;57669;52.624;-1.688;2022-08-01T07:08:09;101376.72;;;17.66;38.03
70256;BME280;57669;52.624;-1.688;2022-08-01T07:10:35;101374.89;;;18.09;36.55
70256;BME280;57669;52.624;-1.688;2022-08-01T07:13:01;101368.39;;;18.93;35.91
70256;BME280;57669;52.624;-1.688;2022-08-01T07:15:26;101374.52;;;18.99;35.85
70256;BME280;57669;52.624;-1.688;2022-08-01T07:17:52;101376.20;;;17.97;37.47
70256;BME280;57669;52.624;-1.688;2022-08-01T07:20:18;101374.31;;;18.79;36.12
70256;BME280;57669;52.624;-1.688;2022-08-01T07:22:43;101372.05;;;18.02;36.98
70256;BME280;57669;52.624;-1.688;2022-08-01T07:25:09;101374.38;;;17.94;38.14
70256;BME280;57669;52.624;-1.688;2022-08-01T07:27:35;101372.98;;;17.66;37.84
70256;BME280;57669;52.624;-1.688;2022-08-01T07:30:00;101371.59;;;17.14;39.33
70256;BME280;57669;52.624;-1.688;2022-08-01T07:32:26;101362.17;;;17.35;38.93
70256;BME280;57669;52.624;-1.688;2022-08-01T07:34:51;101368.59;;;17.86;38.19
70256;BME280;57669;52.624;-1.688;2022-08-01T07:37:17;101367.80;;;18.02;38.48
70256;BME280;57669;52.624;-1.688;2022-08-01T07:39:43;101363.65;;;17.50;39.01
70256;BME280;57669;52.624;-1.688;2022-08-01T07:42:08;101366.13;;;17.34;39.41
70256;BME280;57669;52.624;-1.688;2022-08-01T07:44:35;101368.29;;;17.14;39.39
70256;BME280;57669;52.624;-1.688;2022-08-01T07:47:00;101365.99;;;16.49;40.56
70256;BME280;57669;52.624;-1.688;2022-08-01T07:49:25;101367.09;;;16.67;41.17
70256;BME280;57669;52.624;-1.688;2022-08-01T07:51:51;101362.10;;;16.64;40.72
70256;BME280;57669;52.624;-1.688;2022-08-01T07:54:17;101357.12;;;16.98;40.29
70256;BME280;57669;52.624;-1.688;2022-08-01T07:56:42;101359.58;;;16.71;40.56
70256;BME280;57669;52.624;-1.688;2022-08-01T07:59:08;101361.52;;;16.45;41.87
70256;BME280;57669;52.624;-1.688;2022-08-01T08:01:34;101359.61;;;17.26;40.40
70256;BME280;57669;52.624;-1.688;2022-08-01T08:03:59;101358.20;;;16.55;40.95
70256;BME280;57669;52.624;-1.688;2022-08-01T08:06:25;101360.52;;;16.13;41.91
70256;BME280;57669;52.624;-1.688;2022-08-01T08:08:50;101361.99;;;16.13;43.30
70256;BME280;57669;52.624;-1.688;2022-08-01T08:11:16;101358.40;;;16.17;42.41
70256;BME280;57669;52.624;-1.688;2022-08-01T08:13:52;101354.07;;;15.49;43.83
70256;BME280;57669;52.624;-1.688;2022-08-01T08:16:08;101357.10;;;16.24;42.65
70256;BME280;57669;52.624;-1.688;2022-08-01T08:18:33;101348.36;;;16.27;41.81
70256;BME280;57669;52.624;-1.688;2022-08-01T08:20:59;101353.91;;;15.90;42.77
70256;BME280;57669;52.624;-1.688;2022-08-01T08:23:25;101344.88;;;16.83;41.44
70256;BME280;57669;52.624;-1.688;2022-08-01T08:25:50;101346.49;;;16.23;41.42
70256;BME280;57669;52.624;-1.688;2022-08-01T08:28:16;101347.66;;;17.17;40.10
70256;BME280;57669;52.624;-1.688;2022-08-01T08:30:42;101345.41;;;17.50;39.61
70256;BME280;57669;52.624;-1.688;2022-08-01T08:33:07;101349.42;;;16.84;39.99
70256;BME280;57669;52.624;-1.688;2022-08-01T08:35:33;101354.11;;;17.06;39.97
70256;BME280;57669;52.624;-1.688;2022-08-01T08:37:59;101358.62;;;17.78;39.06
70256;BME280;57669;52.624;-1.688;2022-08-01T08:40:29;101350.17;;;17.78;38.29
70256;BME280;57669;52.624;-1.688;2022-08-01T08:42:50;101345.92;;;17.92;38.13
70256;BME280;57669;52.624;-1.688;2022-08-01T08:45:16;101344.06;;;17.29;38.67
70256;BME280;57669;52.624;-1.688;2022-08-01T08:47:41;101343.98;;;18.15;37.95
70256;BME280;57669;52.624;-1.688;2022-08-01T08:50:10;101339.40;;;18.30;38.14
70256;BME280;57669;52.624;-1.688;2022-08-01T08:52:35;101339.87;;;17.64;37.83
70256;BME280;57669;52.624;-1.688;2022-08-01T08:54:58;101328.80;;;18.48;37.34
70256;BME280;57669;52.624;-1.688;2022-08-01T08:57:24;101324.30;;;17.85;37.03
70256;BME280;57669;52.624;-1.688;2022-08-01T08:59:50;101325.85;;;17.96;36.43
70256;BME280;57669;52.624;-1.688;2022-08-01T09:02:15;101327.93;;;17.35;37.47
70256;BME280;57669;52.624;-1.688;2022-08-01T09:04:41;101327.04;;;18.31;36.40
70256;BME280;57669;52.624;-1.688;2022-08-01T09:07:07;101328.63;;;17.88;35.43
70256;BME280;57669;52.624;-1.688;2022-08-01T09:09:32;101327.94;;;17.44;36.77
70256;BME280;57669;52.624;-1.688;2022-08-01T09:11:57;101326.33;;;18.40;35.53
70256;BME280;57669;52.624;-1.688;2022-08-01T09:14:24;101319.53;;;17.57;36.44
70256;BME280;57669;52.624;-1.688;2022-08-01T09:19:16;101326.71;;;19.05;33.51
70256;BME280;57669;52.624;-1.688;2022-08-01T09:24:15;101331.96;;;18.14;34.07
70256;BME280;57669;52.624;-1.688;2022-08-01T09:26:34;101327.18;;;18.40;34.04
70256;BME280;57669;52.624;-1.688;2022-08-01T09:28:59;101332.90;;;18.81;33.61
70256;BME280;57669;52.624;-1.688;2022-08-01T09:31:26;101335.93;;;18.98;33.52
70256;BME280;57669;52.624;-1.688;2022-08-01T09:33:51;101331.66;;;19.28;32.75
70256;BME280;57669;52.624;-1.688;2022-08-01T09:36:14;101333.19;;;18.71;32.91
70256;BME280;57669;52.624;-1.688;2022-08-01T09:38:40;101327.32;;;18.91;32.78
70256;BME280;57669;52.624;-1.688;2022-08-01T09:41:05;101332.83;;;19.61;32.43
70256;BME280;57669;52.624;-1.688;2022-08-01T09:43:31;101329.15;;;18.62;32.50
70256;BME280;57669;52.624;-1.688;2022-08-01T09:45:57;101321.66;;;19.02;32.38
70256;BME280;57669;52.624;-1.688;2022-08-01T09:48:23;101324.04;;;19.57;31.74
70256;BME280;57669;52.624;-1.688;2022-08-01T09:50:50;101323.46;;;19.68;31.94
70256;BME280;57669;52.624;-1.688;2022-08-01T09:53:15;101323.27;;;19.84;31.76
70256;BME280;57669;52.624;-1.688;2022-08-01T09:55:40;101329.02;;;19.41;31.79
70256;BME280;57669;52.624;-1.688;2022-08-01T09:58:05;101321.92;;;20.00;31.60
70256;BME280;57669;52.624;-1.688;2022-08-01T10:00:38;101321.97;;;19.53;31.99
70256;BME280;57669;52.624;-1.688;2022-08-01T10:02:56;101318.39;;;19.66;31.88
70256;BME280;57669;52.624;-1.688;2022-08-01T10:05:30;101321.59;;;19.77;31.49
70256;BME280;57669;52.624;-1.688;2022-08-01T10:07:56;101320.32;;;19.58;32.44
70256;BME280;57669;52.624;-1.688;2022-08-01T10:10:15;101318.88;;;19.01;31.91
70256;BME280;57669;52.624;-1.688;2022-08-01T10:12:40;101318.36;;;19.22;31.37
70256;BME280;57669;52.624;-1.688;2022-08-01T10:15:05;101326.90;;;20.03;30.70
70256;BME280;57669;52.624;-1.688;2022-08-01T10:17:30;101323.21;;;20.24;31.17
70256;BME280;57669;52.624;-1.688;2022-08-01T10:19:56;101321.54;;;20.39;31.10
70256;BME280;57669;52.624;-1.688;2022-08-01T10:22:23;101311.51;;;20.23;30.66
70256;BME280;57669;52.624;-1.688;2022-08-01T10:24:47;101309.69;;;20.26;30.99
70256;BME280;57669;52.624;-1.688;2022-08-01T10:27:15;101307.28;;;20.30;30.26
70256;BME280;57669;52.624;-1.688;2022-08-01T10:29:42;101309.05;;;19.77;30.48
70256;BME280;57669;52.624;-1.688;2022-08-01T10:32:04;101306.59;;;20.90;30.29
70256;BME280;57669;52.624;-1.688;2022-08-01T10:34:30;101310.76;;;20.90;29.09
70256;BME280;57669;52.624;-1.688;2022-08-01T10:36:56;101313.59;;;20.50;29.48
70256;BME280;57669;52.624;-1.688;2022-08-01T10:39:21;101315.31;;;20.56;29.89
70256;BME280;57669;52.624;-1.688;2022-08-01T10:41:46;101321.10;;;20.87;30.64
70256;BME280;57669;52.624;-1.688;2022-08-01T10:44:12;101320.16;;;20.72;29.00
70256;BME280;57669;52.624;-1.688;2022-08-01T10:46:39;101319.00;;;20.68;29.66
70256;BME280;57669;52.624;-1.688;2022-08-01T10:49:08;101314.68;;;21.25;29.11
70256;BME280;57669;52.624;-1.688;2022-08-01T10:51:29;101314.37;;;20.47;29.27
70256;BME280;57669;52.624;-1.688;2022-08-01T10:53:54;101307.16;;;21.26;28.93
70256;BME280;57669;52.624;-1.688;2022-08-01T10:56:20;101310.33;;;21.25;28.35
70256;BME280;57669;52.624;-1.688;2022-08-01T10:58:47;101303.59;;;21.88;27.41
70256;BME280;57669;52.624;-1.688;2022-08-01T11:01:15;101298.85;;;22.26;27.32
70256;BME280;57669;52.624;-1.688;2022-08-01T11:03:37;101299.97;;;21.70;28.53
70256;BME280;57669;52.624;-1.688;2022-08-01T11:06:03;101299.42;;;20.37;29.84
70256;BME280;57669;52.624;-1.688;2022-08-01T11:08:28;101298.82;;;21.23;29.49
70256;BME280;57669;52.624;-1.688;2022-08-01T11:10:59;101289.49;;;21.30;28.13
70256;BME280;57669;52.624;-1.688;2022-08-01T11:15:45;101278.43;;;21.86;27.71
70256;BME280;57669;52.624;-1.688;2022-08-01T11:20:36;101281.82;;;21.28;28.58
70256;BME280;57669;52.624;-1.688;2022-08-01T11:30:23;101269.36;;;22.24;27.51
70256;BME280;57669;52.624;-1.688;2022-08-01T11:32:46;101261.46;;;22.40;27.74
70256;BME280;57669;52.624;-1.688;2022-08-01T11:35:09;101263.70;;;22.54;27.80
70256;BME280;57669;52.624;-1.688;2022-08-01T11:37:35;101259.60;;;21.82;27.71
70256;BME280;57669;52.624;-1.688;2022-08-01T11:42:27;101258.14;;;20.82;28.82
70256;BME280;57669;52.624;-1.688;2022-08-01T11:44:53;101261.54;;;21.07;28.36
70256;BME280;57669;52.624;-1.688;2022-08-01T11:47:18;101254.13;;;21.48;28.10
70256;BME280;57669;52.624;-1.688;2022-08-01T11:49:46;101259.37;;;22.18;28.32
70256;BME280;57669;52.624;-1.688;2022-08-01T11:52:10;101259.86;;;22.33;27.84
70256;BME280;57669;52.624;-1.688;2022-08-01T11:54:36;101255.88;;;21.38;27.75
70256;BME280;57669;52.624;-1.688;2022-08-01T11:57:02;101250.25;;;22.02;27.90
70256;BME280;57669;52.624;-1.688;2022-08-01T11:59:26;101247.68;;;22.61;26.68
70256;BME280;57669;52.624;-1.688;2022-08-01T12:01:52;101249.11;;;23.17;25.71
70256;BME280;57669;52.624;-1.688;2022-08-01T12:04:17;101248.93;;;23.45;25.14
70256;BME280;57669;52.624;-1.688;2022-08-01T12:06:42;101249.31;;;23.03;26.26
70256;BME280;57669;52.624;-1.688;2022-08-01T12:09:15;101246.46;;;23.15;25.82
70256;BME280;57669;52.624;-1.688;2022-08-01T12:11:34;101246.89;;;23.21;25.19
70256;BME280;57669;52.624;-1.688;2022-08-01T12:13:59;101246.87;;;23.06;25.50
70256;BME280;57669;52.624;-1.688;2022-08-01T12:16:25;101247.11;;;23.62;25.55
70256;BME280;57669;52.624;-1.688;2022-08-01T12:18:50;101249.92;;;24.45;24.32
70256;BME280;57669;52.624;-1.688;2022-08-01T12:21:16;101245.64;;;24.73;23.21
70256;BME280;57669;52.624;-1.688;2022-08-01T12:23:42;101242.17;;;24.76;23.19
70256;BME280;57669;52.624;-1.688;2022-08-01T12:26:07;101245.72;;;24.83;22.40
70256;BME280;57669;52.624;-1.688;2022-08-01T12:28:38;101239.75;;;23.24;24.83
70256;BME280;57669;52.624;-1.688;2022-08-01T12:30:58;101229.18;;;24.26;24.21
70256;BME280;57669;52.624;-1.688;2022-08-01T12:33:24;101224.98;;;26.05;21.79
70256;BME280;57669;52.624;-1.688;2022-08-01T12:35:49;101217.69;;;26.66;21.29
70256;BME280;57669;52.624;-1.688;2022-08-01T12:38:17;101221.93;;;26.98;20.13
70256;BME280;57669;52.624;-1.688;2022-08-01T12:40:42;101218.65;;;26.24;21.42
70256;BME280;57669;52.624;-1.688;2022-08-01T12:43:08;101218.32;;;26.50;21.03
70256;BME280;57669;52.624;-1.688;2022-08-01T12:45:34;101211.87;;;27.36;20.06
70256;BME280;57669;52.624;-1.688;2022-08-01T12:47:57;101207.07;;;26.45;20.67
70256;BME280;57669;52.624;-1.688;2022-08-01T12:50:25;101201.95;;;26.02;22.22
70256;BME280;57669;52.624;-1.688;2022-08-01T12:52:49;101199.01;;;25.90;21.63
70256;BME280;57669;52.624;-1.688;2022-08-01T12:55:15;101187.61;;;26.31;21.30